0351 UTC 04 December 2016 found at http://aviationweather.gov/adds/metars/
 
METAR text: KMNH 040337Z AUTO 34004KT 10SM CLR M06/M13 A3003 RMK AO2
Conditions at: KMNH (MONUMENT/ELBERT , CO, US) observed 0337 UTC 04 December 2016
Temperature: -6.0°C (21°F)
Dewpoint: -13.0°C (9°F) [RH = 58%]
Pressure (altimeter): 30.03 inches Hg (1017.0 mb)
Winds: from the NNW (340 degrees) at 5 MPH (4 knots; 2.1 m/s)
Visibility: 10 or more miles (16+ km)
Ceiling: at least 12,000 feet AGL
Clouds: sky clear below 12,000 feet AGL
Weather: automated observation with no human augmentation;
there may or may not be significant weather present at this time

METAR text: KMNH 040317Z AUTO 34003KT 10SM CLR M05/M13 A3003 RMK AO2
Conditions at: KMNH (MONUMENT/ELBERT , CO, US) observed 0317 UTC 04 December 2016
Temperature: -5.0°C (23°F)
Dewpoint: -13.0°C (9°F) [RH = 53%]
Pressure (altimeter): 30.03 inches Hg (1017.0 mb)
Winds: from the NNW (340 degrees) at 3 MPH (3 knots; 1.6 m/s)
Visibility: 10 or more miles (16+ km)
Ceiling: at least 12,000 feet AGL
Clouds: sky clear below 12,000 feet AGL
Weather: automated observation with no human augmentation;
there may or may not be significant weather present at this time

METAR text: KMNH 040256Z AUTO 34004KT 10SM SCT070 M04/M13 A3003 RMK AO2
Conditions at: KMNH (MONUMENT/ELBERT , CO, US) observed 0256 UTC 04 December 2016
Temperature: -4.0°C (25°F)
Dewpoint: -13.0°C (9°F) [RH = 50%]
Pressure (altimeter): 30.03 inches Hg (1017.0 mb)
Winds: from the NNW (340 degrees) at 5 MPH (4 knots; 2.1 m/s)
Visibility: 10 or more miles (16+ km)
Ceiling: at least 12,000 feet AGL
Clouds: scattered clouds at 7000 feet AGL
Weather: automated observation with no human augmentation;
there may or may not be significant weather present at this time

METAR text: KMNH 040237Z AUTO 34004KT 10SM SCT070 BKN085 BKN090 M03/M13 A3003 RMK AO2
Conditions at: KMNH (MONUMENT/ELBERT , CO, US) observed 0237 UTC 04 December 2016
Temperature: -3.0°C (27°F)
Dewpoint: -13.0°C (9°F) [RH = 46%]
Pressure (altimeter): 30.03 inches Hg (1017.0 mb)
Winds: from the NNW (340 degrees) at 5 MPH (4 knots; 2.1 m/s)
Visibility: 10 or more miles (16+ km)
Ceiling: 8500 feet AGL
Clouds: scattered clouds at 7000 feet AGL
broken clouds at 8500 feet AGL
broken clouds at 9000 feet AGL
Weather: automated observation with no human augmentation;
there may or may not be significant weather present at this time

METAR text: KMNH 040217Z AUTO 32005KT 10SM OVC085 M04/M12 A3003 RMK AO2
Conditions at: KMNH (MONUMENT/ELBERT , CO, US) observed 0217 UTC 04 December 2016
Temperature: -4.0°C (25°F)
Dewpoint: -12.0°C (10°F) [RH = 54%]
Pressure (altimeter): 30.03 inches Hg (1017.0 mb)
Winds: from the NW (320 degrees) at 6 MPH (5 knots; 2.6 m/s)
Visibility: 10 or more miles (16+ km)
Ceiling: 8500 feet AGL
Clouds: overcast cloud deck at 8500 feet AGL
Weather: automated observation with no human augmentation;
there may or may not be significant weather present at this time

METAR text: KMNH 040157Z AUTO 00000KT 10SM OVC075 M03/M13 A3002 RMK AO2
Conditions at: KMNH (MONUMENT/ELBERT , CO, US) observed 0157 UTC 04 December 2016
Temperature: -3.0°C (27°F)
Dewpoint: -13.0°C (9°F) [RH = 46%]
Pressure (altimeter): 30.02 inches Hg (1016.7 mb)
Winds: calm
Visibility: 10 or more miles (16+ km)
Ceiling: 7500 feet AGL
Clouds: overcast cloud deck at 7500 feet AGL
Weather: automated observation with no human augmentation;
there may or may not be significant weather present at this time

METAR text: KMNH 040137Z AUTO 00000KT 10SM SCT075 OVC095 M03/M13 A3001 RMK AO2
Conditions at: KMNH (MONUMENT/ELBERT , CO, US) observed 0137 UTC 04 December 2016
Temperature: -3.0°C (27°F)
Dewpoint: -13.0°C (9°F) [RH = 46%]
Pressure (altimeter): 30.01 inches Hg (1016.3 mb)
Winds: calm
Visibility: 10 or more miles (16+ km)
Ceiling: 9500 feet AGL
Clouds: scattered clouds at 7500 feet AGL
overcast cloud deck at 9500 feet AGL
Weather: automated observation with no human augmentation;
there may or may not be significant weather present at this time

METAR text: KMNH 040117Z AUTO 00000KT 10SM OVC085 M02/M13 A3000 RMK AO2
Conditions at: KMNH (MONUMENT/ELBERT , CO, US) observed 0117 UTC 04 December 2016
Temperature: -2.0°C (28°F)
Dewpoint: -13.0°C (9°F) [RH = 43%]
Pressure (altimeter): 30.00 inches Hg (1016.0 mb)
Winds: calm
Visibility: 10 or more miles (16+ km)
Ceiling: 8500 feet AGL
Clouds: overcast cloud deck at 8500 feet AGL
Weather: automated observation with no human augmentation;
there may or may not be significant weather present at this time

METAR text: KMNH 040057Z AUTO 01003KT 10SM OVC085 M02/M13 A3000 RMK AO2
Conditions at: KMNH (MONUMENT/ELBERT , CO, US) observed 0057 UTC 04 December 2016
Temperature: -2.0°C (28°F)
Dewpoint: -13.0°C (9°F) [RH = 43%]
Pressure (altimeter): 30.00 inches Hg (1016.0 mb)
Winds: from the N (10 degrees) at 3 MPH (3 knots; 1.6 m/s)
Visibility: 10 or more miles (16+ km)
Ceiling: 8500 feet AGL
Clouds: overcast cloud deck at 8500 feet AGL
Weather: automated observation with no human augmentation;
there may or may not be significant weather present at this time

METAR text: KMNH 040037Z AUTO 00000KT 10SM OVC085 M02/M13 A2998 RMK AO2
Conditions at: KMNH (MONUMENT/ELBERT , CO, US) observed 0037 UTC 04 December 2016
Temperature: -2.0°C (28°F)
Dewpoint: -13.0°C (9°F) [RH = 43%]
Pressure (altimeter): 29.98 inches Hg (1015.3 mb)
Winds: calm
Visibility: 10 or more miles (16+ km)
Ceiling: 8500 feet AGL
Clouds: overcast cloud deck at 8500 feet AGL
Weather: automated observation with no human augmentation;
there may or may not be significant weather present at this time

METAR text: KMNH 040017Z AUTO 00000KT 10SM OVC085 M02/M13 A2998 RMK AO2
Conditions at: KMNH (MONUMENT/ELBERT , CO, US) observed 0017 UTC 04 December 2016
Temperature: -2.0°C (28°F)
Dewpoint: -13.0°C (9°F) [RH = 43%]
Pressure (altimeter): 29.98 inches Hg (1015.3 mb)
Winds: calm
Visibility: 10 or more miles (16+ km)
Ceiling: 8500 feet AGL
Clouds: overcast cloud deck at 8500 feet AGL
Weather: automated observation with no human augmentation;
there may or may not be significant weather present at this time

METAR text: KMNH 032357Z AUTO 05003KT 10SM OVC085 M01/M14 A2998 RMK AO2
Conditions at: KMNH (MONUMENT/ELBERT , CO, US) observed 2357 UTC 03 December 2016
Temperature: -1.0°C (30°F)
Dewpoint: -14.0°C (7°F) [RH = 37%]
Pressure (altimeter): 29.98 inches Hg (1015.3 mb)
Winds: from the NE (50 degrees) at 3 MPH (3 knots; 1.6 m/s)
Visibility: 10 or more miles (16+ km)
Ceiling: 8500 feet AGL
Clouds: overcast cloud deck at 8500 feet AGL
Weather: automated observation with no human augmentation;
there may or may not be significant weather present at this time

METAR text: KMNH 032337Z AUTO 02006KT 10SM SCT075 OVC090 00/M15 A2997 RMK AO2
Conditions at: KMNH (MONUMENT/ELBERT , CO, US) observed 2337 UTC 03 December 2016
Temperature: 0.0°C (32°F)
Dewpoint: -15.0°C (5°F) [RH = 31%]
Pressure (altimeter): 29.97 inches Hg (1015.0 mb)
Winds: from the NNE (20 degrees) at 7 MPH (6 knots; 3.1 m/s)
Visibility: 10 or more miles (16+ km)
Ceiling: 9000 feet AGL
Clouds: scattered clouds at 7500 feet AGL
overcast cloud deck at 9000 feet AGL
Weather: automated observation with no human augmentation;
there may or may not be significant weather present at this time

METAR text: KMNH 032317Z AUTO 02008KT 10SM SCT060 OVC075 00/M15 A2996 RMK AO2
Conditions at: KMNH (MONUMENT/ELBERT , CO, US) observed 2317 UTC 03 December 2016
Temperature: 0.0°C (32°F)
Dewpoint: -15.0°C (5°F) [RH = 31%]
Pressure (altimeter): 29.96 inches Hg (1014.6 mb)
Winds: from the NNE (20 degrees) at 9 MPH (8 knots; 4.2 m/s)
Visibility: 10 or more miles (16+ km)
Ceiling: 7500 feet AGL
Clouds: scattered clouds at 6000 feet AGL
overcast cloud deck at 7500 feet AGL
Weather: automated observation with no human augmentation;
there may or may not be significant weather present at this time

METAR text: KMNH 032257Z AUTO 35006KT 10SM BKN060 OVC075 00/M15 A2996 RMK AO2
Conditions at: KMNH (MONUMENT/ELBERT , CO, US) observed 2257 UTC 03 December 2016
Temperature: 0.0°C (32°F)
Dewpoint: -15.0°C (5°F) [RH = 31%]
Pressure (altimeter): 29.96 inches Hg (1014.6 mb)
Winds: from the N (350 degrees) at 7 MPH (6 knots; 3.1 m/s)
Visibility: 10 or more miles (16+ km)
Ceiling: 6000 feet AGL
Clouds: broken clouds at 6000 feet AGL
overcast cloud deck at 7500 feet AGL
Weather: automated observation with no human augmentation;
there may or may not be significant weather present at this time

METAR text: KMNH 032237Z AUTO 35006KT 10SM BKN070 BKN090 OVC110 01/M15 A2996 RMK AO2
Conditions at: KMNH (MONUMENT/ELBERT , CO, US) observed 2237 UTC 03 December 2016
Temperature: 1.0°C (34°F)
Dewpoint: -15.0°C (5°F) [RH = 29%]
Pressure (altimeter): 29.96 inches Hg (1014.6 mb)
Winds: from the N (350 degrees) at 7 MPH (6 knots; 3.1 m/s)
Visibility: 10 or more miles (16+ km)
Ceiling: 7000 feet AGL
Clouds: broken clouds at 7000 feet AGL
broken clouds at 9000 feet AGL
overcast cloud deck at 11000 feet AGL
Weather: automated observation with no human augmentation;
there may or may not be significant weather present at this time

METAR text: KMNH 032217Z AUTO 34005KT 10SM BKN110 01/M15 A2995 RMK AO2
Conditions at: KMNH (MONUMENT/ELBERT , CO, US) observed 2217 UTC 03 December 2016
Temperature: 1.0°C (34°F)
Dewpoint: -15.0°C (5°F) [RH = 29%]
Pressure (altimeter): 29.95 inches Hg (1014.3 mb)
Winds: from the NNW (340 degrees) at 6 MPH (5 knots; 2.6 m/s)
Visibility: 10 or more miles (16+ km)
Ceiling: 11000 feet AGL
Clouds: broken clouds at 11000 feet AGL
Weather: automated observation with no human augmentation;
there may or may not be significant weather present at this time

METAR text: KMNH 032156Z AUTO 35006KT 10SM SCT100 02/M15 A2994 RMK AO2
Conditions at: KMNH (MONUMENT/ELBERT , CO, US) observed 2156 UTC 03 December 2016
Temperature: 2.0°C (36°F)
Dewpoint: -15.0°C (5°F) [RH = 27%]
Pressure (altimeter): 29.94 inches Hg (1014.0 mb)
Winds: from the N (350 degrees) at 7 MPH (6 knots; 3.1 m/s)
Visibility: 10 or more miles (16+ km)
Ceiling: at least 12,000 feet AGL
Clouds: scattered clouds at 10000 feet AGL
Weather: automated observation with no human augmentation;
there may or may not be significant weather present at this time

METAR text: KMNH 032137Z AUTO 36004KT 10SM OVC100 02/M15 A2993 RMK AO2
Conditions at: KMNH (MONUMENT/ELBERT , CO, US) observed 2137 UTC 03 December 2016
Temperature: 2.0°C (36°F)
Dewpoint: -15.0°C (5°F) [RH = 27%]
Pressure (altimeter): 29.93 inches Hg (1013.6 mb)
Winds: from the N (360 degrees) at 5 MPH (4 knots; 2.1 m/s)
Visibility: 10 or more miles (16+ km)
Ceiling: 10000 feet AGL
Clouds: overcast cloud deck at 10000 feet AGL
Weather: automated observation with no human augmentation;
there may or may not be significant weather present at this time

METAR text: KMNH 032117Z AUTO 36004KT 10SM BKN100 02/M15 A2994 RMK AO2
Conditions at: KMNH (MONUMENT/ELBERT , CO, US) observed 2117 UTC 03 December 2016
Temperature: 2.0°C (36°F)
Dewpoint: -15.0°C (5°F) [RH = 27%]
Pressure (altimeter): 29.94 inches Hg (1014.0 mb)
Winds: from the N (360 degrees) at 5 MPH (4 knots; 2.1 m/s)
Visibility: 10 or more miles (16+ km)
Ceiling: 10000 feet AGL
Clouds: broken clouds at 10000 feet AGL
Weather: automated observation with no human augmentation;
there may or may not be significant weather present at this time

METAR text: KMNH 032057Z AUTO 35006KT 10SM SCT100 02/M15 A2994 RMK AO2
Conditions at: KMNH (MONUMENT/ELBERT , CO, US) observed 2057 UTC 03 December 2016
Temperature: 2.0°C (36°F)
Dewpoint: -15.0°C (5°F) [RH = 27%]
Pressure (altimeter): 29.94 inches Hg (1014.0 mb)
Winds: from the N (350 degrees) at 7 MPH (6 knots; 3.1 m/s)
Visibility: 10 or more miles (16+ km)
Ceiling: at least 12,000 feet AGL
Clouds: scattered clouds at 10000 feet AGL
Weather: automated observation with no human augmentation;
there may or may not be significant weather present at this time

METAR text: KMNH 032037Z AUTO 35006KT 10SM BKN100 BKN120 02/M16 A2994 RMK AO2
Conditions at: KMNH (MONUMENT/ELBERT , CO, US) observed 2037 UTC 03 December 2016
Temperature: 2.0°C (36°F)
Dewpoint: -16.0°C (3°F) [RH = 25%]
Pressure (altimeter): 29.94 inches Hg (1014.0 mb)
Winds: from the N (350 degrees) at 7 MPH (6 knots; 3.1 m/s)
Visibility: 10 or more miles (16+ km)
Ceiling: 10000 feet AGL
Clouds: broken clouds at 10000 feet AGL
broken clouds at 12000 feet AGL
Weather: automated observation with no human augmentation;
there may or may not be significant weather present at this time

METAR text: KMNH 032017Z AUTO 33009KT 10SM SCT120 02/M13 A2994 RMK AO2
Conditions at: KMNH (MONUMENT/ELBERT , CO, US) observed 2017 UTC 03 December 2016
Temperature: 2.0°C (36°F)
Dewpoint: -13.0°C (9°F) [RH = 32%]
Pressure (altimeter): 29.94 inches Hg (1014.0 mb)
Winds: from the NNW (330 degrees) at 10 MPH (9 knots; 4.7 m/s)
Visibility: 10 or more miles (16+ km)
Ceiling: at least 12,000 feet AGL
Clouds: scattered clouds at 12000 feet AGL
Weather: automated observation with no human augmentation;
there may or may not be significant weather present at this time

METAR text: KMNH 031956Z AUTO 35009KT 10SM CLR 02/M15 A2994 RMK AO2
Conditions at: KMNH (MONUMENT/ELBERT , CO, US) observed 1956 UTC 03 December 2016
Temperature: 2.0°C (36°F)
Dewpoint: -15.0°C (5°F) [RH = 27%]
Pressure (altimeter): 29.94 inches Hg (1014.0 mb)
Winds: from the N (350 degrees) at 10 MPH (9 knots; 4.7 m/s)
Visibility: 10 or more miles (16+ km)
Ceiling: at least 12,000 feet AGL
Clouds: sky clear below 12,000 feet AGL
Weather: automated observation with no human augmentation;
there may or may not be significant weather present at this time

METAR text: KMNH 031937Z AUTO 34005KT 10SM CLR 02/M16 A2994 RMK AO2
Conditions at: KMNH (MONUMENT/ELBERT , CO, US) observed 1937 UTC 03 December 2016
Temperature: 2.0°C (36°F)
Dewpoint: -16.0°C (3°F) [RH = 25%]
Pressure (altimeter): 29.94 inches Hg (1014.0 mb)
Winds: from the NNW (340 degrees) at 6 MPH (5 knots; 2.6 m/s)
Visibility: 10 or more miles (16+ km)
Ceiling: at least 12,000 feet AGL
Clouds: sky clear below 12,000 feet AGL
Weather: automated observation with no human augmentation;
there may or may not be significant weather present at this time

METAR text: KMNH 031917Z AUTO 01006KT 10SM CLR 02/M13 A2995 RMK AO2
Conditions at: KMNH (MONUMENT/ELBERT , CO, US) observed 1917 UTC 03 December 2016
Temperature: 2.0°C (36°F)
Dewpoint: -13.0°C (9°F) [RH = 32%]
Pressure (altimeter): 29.95 inches Hg (1014.3 mb)
Winds: from the N (10 degrees) at 7 MPH (6 knots; 3.1 m/s)
Visibility: 10 or more miles (16+ km)
Ceiling: at least 12,000 feet AGL
Clouds: sky clear below 12,000 feet AGL
Weather: automated observation with no human augmentation;
there may or may not be significant weather present at this time

METAR text: KMNH 031857Z AUTO 01004KT 10SM CLR 02/M13 A2995 RMK AO2
Conditions at: KMNH (MONUMENT/ELBERT , CO, US) observed 1857 UTC 03 December 2016
Temperature: 2.0°C (36°F)
Dewpoint: -13.0°C (9°F) [RH = 32%]
Pressure (altimeter): 29.95 inches Hg (1014.3 mb)
Winds: from the N (10 degrees) at 5 MPH (4 knots; 2.1 m/s)
Visibility: 10 or more miles (16+ km)
Ceiling: at least 12,000 feet AGL
Clouds: sky clear below 12,000 feet AGL
Weather: automated observation with no human augmentation;
there may or may not be significant weather present at this time

METAR text: KMNH 031837Z AUTO 35004KT 10SM CLR 02/M12 A2996 RMK AO2
Conditions at: KMNH (MONUMENT/ELBERT , CO, US) observed 1837 UTC 03 December 2016
Temperature: 2.0°C (36°F)
Dewpoint: -12.0°C (10°F) [RH = 35%]
Pressure (altimeter): 29.96 inches Hg (1014.6 mb)
Winds: from the N (350 degrees) at 5 MPH (4 knots; 2.1 m/s)
Visibility: 10 or more miles (16+ km)
Ceiling: at least 12,000 feet AGL
Clouds: sky clear below 12,000 feet AGL
Weather: automated observation with no human augmentation;
there may or may not be significant weather present at this time

METAR text: KMNH 031817Z AUTO 00000KT 10SM CLR 02/M12 A2996 RMK AO2
Conditions at: KMNH (MONUMENT/ELBERT , CO, US) observed 1817 UTC 03 December 2016
Temperature: 2.0°C (36°F)
Dewpoint: -12.0°C (10°F) [RH = 35%]
Pressure (altimeter): 29.96 inches Hg (1014.6 mb)
Winds: calm
Visibility: 10 or more miles (16+ km)
Ceiling: at least 12,000 feet AGL
Clouds: sky clear below 12,000 feet AGL
Weather: automated observation with no human augmentation;
there may or may not be significant weather present at this time

METAR text: KMNH 031757Z AUTO 36005KT 10SM CLR 02/M11 A2997 RMK AO2
Conditions at: KMNH (MONUMENT/ELBERT , CO, US) observed 1757 UTC 03 December 2016
Temperature: 2.0°C (36°F)
Dewpoint: -11.0°C (12°F) [RH = 37%]
Pressure (altimeter): 29.97 inches Hg (1015.0 mb)
Winds: from the N (360 degrees) at 6 MPH (5 knots; 2.6 m/s)
Visibility: 10 or more miles (16+ km)
Ceiling: at least 12,000 feet AGL
Clouds: sky clear below 12,000 feet AGL
Weather: automated observation with no human augmentation;
there may or may not be significant weather present at this time

METAR text: KMNH 031737Z AUTO 34005KT 10SM CLR 01/M12 A2998 RMK AO2
Conditions at: KMNH (MONUMENT/ELBERT , CO, US) observed 1737 UTC 03 December 2016
Temperature: 1.0°C (34°F)
Dewpoint: -12.0°C (10°F) [RH = 37%]
Pressure (altimeter): 29.98 inches Hg (1015.3 mb)
Winds: from the NNW (340 degrees) at 6 MPH (5 knots; 2.6 m/s)
Visibility: 10 or more miles (16+ km)
Ceiling: at least 12,000 feet AGL
Clouds: sky clear below 12,000 feet AGL
Weather: automated observation with no human augmentation;
there may or may not be significant weather present at this time

METAR text: KMNH 031717Z AUTO 00000KT 10SM CLR 01/M10 A2998 RMK AO2
Conditions at: KMNH (MONUMENT/ELBERT , CO, US) observed 1717 UTC 03 December 2016
Temperature: 1.0°C (34°F)
Dewpoint: -10.0°C (14°F) [RH = 44%]
Pressure (altimeter): 29.98 inches Hg (1015.3 mb)
Winds: calm
Visibility: 10 or more miles (16+ km)
Ceiling: at least 12,000 feet AGL
Clouds: sky clear below 12,000 feet AGL
Weather: automated observation with no human augmentation;
there may or may not be significant weather present at this time

METAR text: KMNH 031656Z AUTO 28006KT 10SM CLR 01/M10 A2999 RMK AO2
Conditions at: KMNH (MONUMENT/ELBERT , CO, US) observed 1656 UTC 03 December 2016
Temperature: 1.0°C (34°F)
Dewpoint: -10.0°C (14°F) [RH = 44%]
Pressure (altimeter): 29.99 inches Hg (1015.7 mb)
Winds: from the W (280 degrees) at 7 MPH (6 knots; 3.1 m/s)
Visibility: 10 or more miles (16+ km)
Ceiling: at least 12,000 feet AGL
Clouds: sky clear below 12,000 feet AGL
Weather: automated observation with no human augmentation;
there may or may not be significant weather present at this time

METAR text: KMNH 031637Z AUTO 27005KT 10SM CLR 01/M10 A2999 RMK AO2
Conditions at: KMNH (MONUMENT/ELBERT , CO, US) observed 1637 UTC 03 December 2016
Temperature: 1.0°C (34°F)
Dewpoint: -10.0°C (14°F) [RH = 44%]
Pressure (altimeter): 29.99 inches Hg (1015.7 mb)
Winds: from the W (270 degrees) at 6 MPH (5 knots; 2.6 m/s)
Visibility: 10 or more miles (16+ km)
Ceiling: at least 12,000 feet AGL
Clouds: sky clear below 12,000 feet AGL
Weather: automated observation with no human augmentation;
there may or may not be significant weather present at this time

METAR text: KMNH 031617Z AUTO 26007KT 10SM CLR 00/M08 A2998 RMK AO2
Conditions at: KMNH (MONUMENT/ELBERT , CO, US) observed 1617 UTC 03 December 2016
Temperature: 0.0°C (32°F)
Dewpoint: -8.0°C (18°F) [RH = 55%]
Pressure (altimeter): 29.98 inches Hg (1015.3 mb)
Winds: from the W (260 degrees) at 8 MPH (7 knots; 3.6 m/s)
Visibility: 10 or more miles (16+ km)
Ceiling: at least 12,000 feet AGL
Clouds: sky clear below 12,000 feet AGL
Weather: automated observation with no human augmentation;
there may or may not be significant weather present at this time

METAR text: KMNH 031557Z AUTO 25008KT 10SM CLR M01/M08 A2997 RMK AO2
Conditions at: KMNH (MONUMENT/ELBERT , CO, US) observed 1557 UTC 03 December 2016
Temperature: -1.0°C (30°F)
Dewpoint: -8.0°C (18°F) [RH = 59%]
Pressure (altimeter): 29.97 inches Hg (1015.0 mb)
Winds: from the WSW (250 degrees) at 9 MPH (8 knots; 4.2 m/s)
Visibility: 10 or more miles (16+ km)
Ceiling: at least 12,000 feet AGL
Clouds: sky clear below 12,000 feet AGL
Weather: automated observation with no human augmentation;
there may or may not be significant weather present at this time

METAR text: KMNH 031536Z AUTO 24009KT 10SM CLR M02/M08 A2997 RMK AO2
Conditions at: KMNH (MONUMENT/ELBERT , CO, US) observed 1536 UTC 03 December 2016
Temperature: -2.0°C (28°F)
Dewpoint: -8.0°C (18°F) [RH = 63%]
Pressure (altimeter): 29.97 inches Hg (1015.0 mb)
Winds: from the WSW (240 degrees) at 10 MPH (9 knots; 4.7 m/s)
Visibility: 10 or more miles (16+ km)
Ceiling: at least 12,000 feet AGL
Clouds: sky clear below 12,000 feet AGL
Weather: automated observation with no human augmentation;
there may or may not be significant weather present at this time

METAR text: KMNH 031517Z AUTO 24007KT 10SM CLR M03/M09 A2997 RMK AO2
Conditions at: KMNH (MONUMENT/ELBERT , CO, US) observed 1517 UTC 03 December 2016
Temperature: -3.0°C (27°F)
Dewpoint: -9.0°C (16°F) [RH = 63%]
Pressure (altimeter): 29.97 inches Hg (1015.0 mb)
Winds: from the WSW (240 degrees) at 8 MPH (7 knots; 3.6 m/s)
Visibility: 10 or more miles (16+ km)
Ceiling: at least 12,000 feet AGL
Clouds: sky clear below 12,000 feet AGL
Weather: automated observation with no human augmentation;
there may or may not be significant weather present at this time

METAR text: KMNH 031457Z AUTO 23008KT 10SM CLR M06/M10 A2997 RMK AO2
Conditions at: KMNH (MONUMENT/ELBERT , CO, US) observed 1457 UTC 03 December 2016
Temperature: -6.0°C (21°F)
Dewpoint: -10.0°C (14°F) [RH = 73%]
Pressure (altimeter): 29.97 inches Hg (1015.0 mb)
Winds: from the SW (230 degrees) at 9 MPH (8 knots; 4.2 m/s)
Visibility: 10 or more miles (16+ km)
Ceiling: at least 12,000 feet AGL
Clouds: sky clear below 12,000 feet AGL
Weather: automated observation with no human augmentation;
there may or may not be significant weather present at this time

METAR text: KMNH 031436Z AUTO 22008KT 10SM CLR M08/M11 A2998 RMK AO2
Conditions at: KMNH (MONUMENT/ELBERT , CO, US) observed 1436 UTC 03 December 2016
Temperature: -8.0°C (18°F)
Dewpoint: -11.0°C (12°F) [RH = 79%]
Pressure (altimeter): 29.98 inches Hg (1015.3 mb)
Winds: from the SW (220 degrees) at 9 MPH (8 knots; 4.2 m/s)
Visibility: 10 or more miles (16+ km)
Ceiling: at least 12,000 feet AGL
Clouds: sky clear below 12,000 feet AGL
Weather: automated observation with no human augmentation;
there may or may not be significant weather present at this time

METAR text: KMNH 031416Z AUTO 22010KT 10SM CLR M08/M10 A2998 RMK AO2
Conditions at: KMNH (MONUMENT/ELBERT , CO, US) observed 1416 UTC 03 December 2016
Temperature: -8.0°C (18°F)
Dewpoint: -10.0°C (14°F) [RH = 85%]
Pressure (altimeter): 29.98 inches Hg (1015.3 mb)
Winds: from the SW (220 degrees) at 12 MPH (10 knots; 5.2 m/s)
Visibility: 10 or more miles (16+ km)
Ceiling: at least 12,000 feet AGL
Clouds: sky clear below 12,000 feet AGL
Weather: automated observation with no human augmentation;
there may or may not be significant weather present at this time

METAR text: KMNH 031357Z AUTO 22011KT 10SM CLR M08/M10 A2998 RMK AO2
Conditions at: KMNH (MONUMENT/ELBERT , CO, US) observed 1357 UTC 03 December 2016
Temperature: -8.0°C (18°F)
Dewpoint: -10.0°C (14°F) [RH = 85%]
Pressure (altimeter): 29.98 inches Hg (1015.3 mb)
Winds: from the SW (220 degrees) at 13 MPH (11 knots; 5.7 m/s)
Visibility: 10 or more miles (16+ km)
Ceiling: at least 12,000 feet AGL
Clouds: sky clear below 12,000 feet AGL
Weather: automated observation with no human augmentation;
there may or may not be significant weather present at this time

METAR text: KMNH 031337Z AUTO 21010KT 10SM CLR M08/M10 A2999 RMK AO2
Conditions at: KMNH (MONUMENT/ELBERT , CO, US) observed 1337 UTC 03 December 2016
Temperature: -8.0°C (18°F)
Dewpoint: -10.0°C (14°F) [RH = 85%]
Pressure (altimeter): 29.99 inches Hg (1015.7 mb)
Winds: from the SSW (210 degrees) at 12 MPH (10 knots; 5.2 m/s)
Visibility: 10 or more miles (16+ km)
Ceiling: at least 12,000 feet AGL
Clouds: sky clear below 12,000 feet AGL
Weather: automated observation with no human augmentation;
there may or may not be significant weather present at this time

METAR text: KMNH 031317Z AUTO 20010KT 10SM CLR M08/M10 A2999 RMK AO2
Conditions at: KMNH (MONUMENT/ELBERT , CO, US) observed 1317 UTC 03 December 2016
Temperature: -8.0°C (18°F)
Dewpoint: -10.0°C (14°F) [RH = 85%]
Pressure (altimeter): 29.99 inches Hg (1015.7 mb)
Winds: from the SSW (200 degrees) at 12 MPH (10 knots; 5.2 m/s)
Visibility: 10 or more miles (16+ km)
Ceiling: at least 12,000 feet AGL
Clouds: sky clear below 12,000 feet AGL
Weather: automated observation with no human augmentation;
there may or may not be significant weather present at this time

METAR text: KMNH 031256Z AUTO 19013KT 10SM CLR M09/M10 A2999 RMK AO2
Conditions at: KMNH (MONUMENT/ELBERT , CO, US) observed 1256 UTC 03 December 2016
Temperature: -9.0°C (16°F)
Dewpoint: -10.0°C (14°F) [RH = 92%]
Pressure (altimeter): 29.99 inches Hg (1015.7 mb)
Winds: from the S (190 degrees) at 15 MPH (13 knots; 6.8 m/s)
Visibility: 10 or more miles (16+ km)
Ceiling: at least 12,000 feet AGL
Clouds: sky clear below 12,000 feet AGL
Weather: automated observation with no human augmentation;
there may or may not be significant weather present at this time

METAR text: KMNH 031237Z AUTO 19011KT 10SM CLR M09/M10 A2999 RMK AO2
Conditions at: KMNH (MONUMENT/ELBERT , CO, US) observed 1237 UTC 03 December 2016
Temperature: -9.0°C (16°F)
Dewpoint: -10.0°C (14°F) [RH = 92%]
Pressure (altimeter): 29.99 inches Hg (1015.7 mb)
Winds: from the S (190 degrees) at 13 MPH (11 knots; 5.7 m/s)
Visibility: 10 or more miles (16+ km)
Ceiling: at least 12,000 feet AGL
Clouds: sky clear below 12,000 feet AGL
Weather: automated observation with no human augmentation;
there may or may not be significant weather present at this time

METAR text: KMNH 031217Z AUTO 19009KT 10SM CLR M08/M10 A3000 RMK AO2
Conditions at: KMNH (MONUMENT/ELBERT , CO, US) observed 1217 UTC 03 December 2016
Temperature: -8.0°C (18°F)
Dewpoint: -10.0°C (14°F) [RH = 85%]
Pressure (altimeter): 30.00 inches Hg (1016.0 mb)
Winds: from the S (190 degrees) at 10 MPH (9 knots; 4.7 m/s)
Visibility: 10 or more miles (16+ km)
Ceiling: at least 12,000 feet AGL
Clouds: sky clear below 12,000 feet AGL
Weather: automated observation with no human augmentation;
there may or may not be significant weather present at this time

METAR text: KMNH 031157Z AUTO 18011KT 10SM CLR M08/M10 A3000 RMK AO2
Conditions at: KMNH (MONUMENT/ELBERT , CO, US) observed 1157 UTC 03 December 2016
Temperature: -8.0°C (18°F)
Dewpoint: -10.0°C (14°F) [RH = 85%]
Pressure (altimeter): 30.00 inches Hg (1016.0 mb)
Winds: from the S (180 degrees) at 13 MPH (11 knots; 5.7 m/s)
Visibility: 10 or more miles (16+ km)
Ceiling: at least 12,000 feet AGL
Clouds: sky clear below 12,000 feet AGL
Weather: automated observation with no human augmentation;
there may or may not be significant weather present at this time

METAR text: KMNH 031137Z AUTO 18009KT 10SM CLR M08/M10 A3001 RMK AO2
Conditions at: KMNH (MONUMENT/ELBERT , CO, US) observed 1137 UTC 03 December 2016
Temperature: -8.0°C (18°F)
Dewpoint: -10.0°C (14°F) [RH = 85%]
Pressure (altimeter): 30.01 inches Hg (1016.3 mb)
Winds: from the S (180 degrees) at 10 MPH (9 knots; 4.7 m/s)
Visibility: 10 or more miles (16+ km)
Ceiling: at least 12,000 feet AGL
Clouds: sky clear below 12,000 feet AGL
Weather: automated observation with no human augmentation;
there may or may not be significant weather present at this time

METAR text: KMNH 031116Z AUTO 20007KT 10SM CLR M07/M09 A3002 RMK AO2
Conditions at: KMNH (MONUMENT/ELBERT , CO, US) observed 1116 UTC 03 December 2016
Temperature: -7.0°C (19°F)
Dewpoint: -9.0°C (16°F) [RH = 86%]
Pressure (altimeter): 30.02 inches Hg (1016.7 mb)
Winds: from the SSW (200 degrees) at 8 MPH (7 knots; 3.6 m/s)
Visibility: 10 or more miles (16+ km)
Ceiling: at least 12,000 feet AGL
Clouds: sky clear below 12,000 feet AGL
Weather: automated observation with no human augmentation;
there may or may not be significant weather present at this time

METAR text: KMNH 031057Z AUTO 21005G16KT 10SM CLR M07/M09 A3002 RMK AO2
Conditions at: KMNH (MONUMENT/ELBERT , CO, US) observed 1057 UTC 03 December 2016
Temperature: -7.0°C (19°F)
Dewpoint: -9.0°C (16°F) [RH = 86%]
Pressure (altimeter): 30.02 inches Hg (1016.7 mb)
Winds: from the SSW (210 degrees) at 6 MPH (5 knots; 2.6 m/sgusting to 18 MPH (16 knots; 8.3 m/s)
Visibility: 10 or more miles (16+ km)
Ceiling: at least 12,000 feet AGL
Clouds: sky clear below 12,000 feet AGL
Weather: automated observation with no human augmentation;
there may or may not be significant weather present at this time

METAR text: KMNH 031037Z AUTO 19013KT 10SM CLR M07/M09 A3002 RMK AO2
Conditions at: KMNH (MONUMENT/ELBERT , CO, US) observed 1037 UTC 03 December 2016
Temperature: -7.0°C (19°F)
Dewpoint: -9.0°C (16°F) [RH = 86%]
Pressure (altimeter): 30.02 inches Hg (1016.7 mb)
Winds: from the S (190 degrees) at 15 MPH (13 knots; 6.8 m/s)
Visibility: 10 or more miles (16+ km)
Ceiling: at least 12,000 feet AGL
Clouds: sky clear below 12,000 feet AGL
Weather: automated observation with no human augmentation;
there may or may not be significant weather present at this time

METAR text: KMNH 031017Z AUTO 20006KT 10SM CLR M07/M09 A3004 RMK AO2
Conditions at: KMNH (MONUMENT/ELBERT , CO, US) observed 1017 UTC 03 December 2016
Temperature: -7.0°C (19°F)
Dewpoint: -9.0°C (16°F) [RH = 86%]
Pressure (altimeter): 30.04 inches Hg (1017.4 mb)
Winds: from the SSW (200 degrees) at 7 MPH (6 knots; 3.1 m/s)
Visibility: 10 or more miles (16+ km)
Ceiling: at least 12,000 feet AGL
Clouds: sky clear below 12,000 feet AGL
Weather: automated observation with no human augmentation;
there may or may not be significant weather present at this time

METAR text: KMNH 030957Z AUTO 18009KT 10SM CLR M07/M09 A3004 RMK AO2
Conditions at: KMNH (MONUMENT/ELBERT , CO, US) observed 0957 UTC 03 December 2016
Temperature: -7.0°C (19°F)
Dewpoint: -9.0°C (16°F) [RH = 86%]
Pressure (altimeter): 30.04 inches Hg (1017.4 mb)
Winds: from the S (180 degrees) at 10 MPH (9 knots; 4.7 m/s)
Visibility: 10 or more miles (16+ km)
Ceiling: at least 12,000 feet AGL
Clouds: sky clear below 12,000 feet AGL
Weather: automated observation with no human augmentation;
there may or may not be significant weather present at this time

METAR text: KMNH 030937Z AUTO 19012G17KT 10SM CLR M07/M09 A3005 RMK AO2
Conditions at: KMNH (MONUMENT/ELBERT , CO, US) observed 0937 UTC 03 December 2016
Temperature: -7.0°C (19°F)
Dewpoint: -9.0°C (16°F) [RH = 86%]
Pressure (altimeter): 30.05 inches Hg (1017.7 mb)
Winds: from the S (190 degrees) at 14 MPH (12 knots; 6.2 m/sgusting to 20 MPH (17 knots; 8.8 m/s)
Visibility: 10 or more miles (16+ km)
Ceiling: at least 12,000 feet AGL
Clouds: sky clear below 12,000 feet AGL
Weather: automated observation with no human augmentation;
there may or may not be significant weather present at this time

METAR text: KMNH 030917Z AUTO 19012G17KT 10SM CLR M07/M09 A3005 RMK AO2
Conditions at: KMNH (MONUMENT/ELBERT , CO, US) observed 0917 UTC 03 December 2016
Temperature: -7.0°C (19°F)
Dewpoint: -9.0°C (16°F) [RH = 86%]
Pressure (altimeter): 30.05 inches Hg (1017.7 mb)
Winds: from the S (190 degrees) at 14 MPH (12 knots; 6.2 m/sgusting to 20 MPH (17 knots; 8.8 m/s)
Visibility: 10 or more miles (16+ km)
Ceiling: at least 12,000 feet AGL
Clouds: sky clear below 12,000 feet AGL
Weather: automated observation with no human augmentation;
there may or may not be significant weather present at this time

METAR text: KMNH 030857Z AUTO 18013G19KT 10SM CLR M07/M09 A3004 RMK AO2
Conditions at: KMNH (MONUMENT/ELBERT , CO, US) observed 0857 UTC 03 December 2016
Temperature: -7.0°C (19°F)
Dewpoint: -9.0°C (16°F) [RH = 86%]
Pressure (altimeter): 30.04 inches Hg (1017.4 mb)
Winds: from the S (180 degrees) at 15 MPH (13 knots; 6.8 m/sgusting to 22 MPH (19 knots; 9.9 m/s)
Visibility: 10 or more miles (16+ km)
Ceiling: at least 12,000 feet AGL
Clouds: sky clear below 12,000 feet AGL
Weather: automated observation with no human augmentation;
there may or may not be significant weather present at this time

METAR text: KMNH 030836Z AUTO 19017G22KT 10SM CLR M07/M10 A3005 RMK AO2
Conditions at: KMNH (MONUMENT/ELBERT , CO, US) observed 0836 UTC 03 December 2016
Temperature: -7.0°C (19°F)
Dewpoint: -10.0°C (14°F) [RH = 79%]
Pressure (altimeter): 30.05 inches Hg (1017.7 mb)
Winds: from the S (190 degrees) at 20 MPH (17 knots; 8.8 m/sgusting to 25 MPH (22 knots; 11.4 m/s)
Visibility: 10 or more miles (16+ km)
Ceiling: at least 12,000 feet AGL
Clouds: sky clear below 12,000 feet AGL
Weather: automated observation with no human augmentation;
there may or may not be significant weather present at this time

METAR text: KMNH 030817Z AUTO 19015G22KT 10SM CLR M07/M10 A3006 RMK AO2
Conditions at: KMNH (MONUMENT/ELBERT , CO, US) observed 0817 UTC 03 December 2016
Temperature: -7.0°C (19°F)
Dewpoint: -10.0°C (14°F) [RH = 79%]
Pressure (altimeter): 30.06 inches Hg (1018.0 mb)
Winds: from the S (190 degrees) at 17 MPH (15 knots; 7.8 m/sgusting to 25 MPH (22 knots; 11.4 m/s)
Visibility: 10 or more miles (16+ km)
Ceiling: at least 12,000 feet AGL
Clouds: sky clear below 12,000 feet AGL
Weather: automated observation with no human augmentation;
there may or may not be significant weather present at this time

METAR text: KMNH 030757Z AUTO 18015G20KT 10SM CLR M07/M10 A3007 RMK AO2
Conditions at: KMNH (MONUMENT/ELBERT , CO, US) observed 0757 UTC 03 December 2016
Temperature: -7.0°C (19°F)
Dewpoint: -10.0°C (14°F) [RH = 79%]
Pressure (altimeter): 30.07 inches Hg (1018.4 mb)
Winds: from the S (180 degrees) at 17 MPH (15 knots; 7.8 m/sgusting to 23 MPH (20 knots; 10.4 m/s)
Visibility: 10 or more miles (16+ km)
Ceiling: at least 12,000 feet AGL
Clouds: sky clear below 12,000 feet AGL
Weather: automated observation with no human augmentation;
there may or may not be significant weather present at this time

METAR text: KMNH 030736Z AUTO 19016G21KT 10SM CLR M07/M10 A3008 RMK AO2
Conditions at: KMNH (MONUMENT/ELBERT , CO, US) observed 0736 UTC 03 December 2016
Temperature: -7.0°C (19°F)
Dewpoint: -10.0°C (14°F) [RH = 79%]
Pressure (altimeter): 30.08 inches Hg (1018.7 mb)
Winds: from the S (190 degrees) at 18 MPH (16 knots; 8.3 m/sgusting to 24 MPH (21 knots; 10.9 m/s)
Visibility: 10 or more miles (16+ km)
Ceiling: at least 12,000 feet AGL
Clouds: sky clear below 12,000 feet AGL
Weather: automated observation with no human augmentation;
there may or may not be significant weather present at this time

METAR text: KMNH 030716Z AUTO 19012KT 10SM CLR M07/M10 A3009 RMK AO2
Conditions at: KMNH (MONUMENT/ELBERT , CO, US) observed 0716 UTC 03 December 2016
Temperature: -7.0°C (19°F)
Dewpoint: -10.0°C (14°F) [RH = 79%]
Pressure (altimeter): 30.09 inches Hg (1019.0 mb)
Winds: from the S (190 degrees) at 14 MPH (12 knots; 6.2 m/s)
Visibility: 10 or more miles (16+ km)
Ceiling: at least 12,000 feet AGL
Clouds: sky clear below 12,000 feet AGL
Weather: automated observation with no human augmentation;
there may or may not be significant weather present at this time

METAR text: KMNH 030637Z AUTO 22007KT 10SM CLR M07/M10 A3011 RMK AO2
Conditions at: KMNH (MONUMENT/ELBERT , CO, US) observed 0637 UTC 03 December 2016
Temperature: -7.0°C (19°F)
Dewpoint: -10.0°C (14°F) [RH = 79%]
Pressure (altimeter): 30.11 inches Hg (1019.7 mb)
Winds: from the SW (220 degrees) at 8 MPH (7 knots; 3.6 m/s)
Visibility: 10 or more miles (16+ km)
Ceiling: at least 12,000 feet AGL
Clouds: sky clear below 12,000 feet AGL
Weather: automated observation with no human augmentation;
there may or may not be significant weather present at this time

METAR text: KMNH 030557Z AUTO 19009KT 10SM CLR M08/M11 A3011 RMK AO2
Conditions at: KMNH (MONUMENT/ELBERT , CO, US) observed 0557 UTC 03 December 2016
Temperature: -8.0°C (18°F)
Dewpoint: -11.0°C (12°F) [RH = 79%]
Pressure (altimeter): 30.11 inches Hg (1019.7 mb)
Winds: from the S (190 degrees) at 10 MPH (9 knots; 4.7 m/s)
Visibility: 10 or more miles (16+ km)
Ceiling: at least 12,000 feet AGL
Clouds: sky clear below 12,000 feet AGL
Weather: automated observation with no human augmentation;
there may or may not be significant weather present at this time

METAR text: KMNH 030537Z AUTO 19010KT 10SM CLR M08/M11 A3012 RMK AO2
Conditions at: KMNH (MONUMENT/ELBERT , CO, US) observed 0537 UTC 03 December 2016
Temperature: -8.0°C (18°F)
Dewpoint: -11.0°C (12°F) [RH = 79%]
Pressure (altimeter): 30.12 inches Hg (1020.1 mb)
Winds: from the S (190 degrees) at 12 MPH (10 knots; 5.2 m/s)
Visibility: 10 or more miles (16+ km)
Ceiling: at least 12,000 feet AGL
Clouds: sky clear below 12,000 feet AGL
Weather: automated observation with no human augmentation;
there may or may not be significant weather present at this time

METAR text: KMNH 030517Z AUTO 20007KT 10SM CLR M10/M11 A3013 RMK AO2
Conditions at: KMNH (MONUMENT/ELBERT , CO, US) observed 0517 UTC 03 December 2016
Temperature: -10.0°C (14°F)
Dewpoint: -11.0°C (12°F) [RH = 92%]
Pressure (altimeter): 30.13 inches Hg (1020.4 mb)
Winds: from the SSW (200 degrees) at 8 MPH (7 knots; 3.6 m/s)
Visibility: 10 or more miles (16+ km)
Ceiling: at least 12,000 feet AGL
Clouds: sky clear below 12,000 feet AGL
Weather: automated observation with no human augmentation;
there may or may not be significant weather present at this time

METAR text: KMNH 030457Z AUTO 21006KT 10SM CLR M10/M11 A3013 RMK AO2
Conditions at: KMNH (MONUMENT/ELBERT , CO, US) observed 0457 UTC 03 December 2016
Temperature: -10.0°C (14°F)
Dewpoint: -11.0°C (12°F) [RH = 92%]
Pressure (altimeter): 30.13 inches Hg (1020.4 mb)
Winds: from the SSW (210 degrees) at 7 MPH (6 knots; 3.1 m/s)
Visibility: 10 or more miles (16+ km)
Ceiling: at least 12,000 feet AGL
Clouds: sky clear below 12,000 feet AGL
Weather: automated observation with no human augmentation;
there may or may not be significant weather present at this time

METAR text: KMNH 030416Z AUTO 21006KT 10SM CLR M10/M11 A3014 RMK AO2
Conditions at: KMNH (MONUMENT/ELBERT , CO, US) observed 0416 UTC 03 December 2016
Temperature: -10.0°C (14°F)
Dewpoint: -11.0°C (12°F) [RH = 92%]
Pressure (altimeter): 30.14 inches Hg (1020.7 mb)
Winds: from the SSW (210 degrees) at 7 MPH (6 knots; 3.1 m/s)
Visibility: 10 or more miles (16+ km)
Ceiling: at least 12,000 feet AGL
Clouds: sky clear below 12,000 feet AGL
Weather: automated observation with no human augmentation;
there may or may not be significant weather present at this time

METAR text: KMNH 030357Z AUTO 21006KT 10SM CLR M09/M11 A3014 RMK AO2
Conditions at: KMNH (MONUMENT/ELBERT , CO, US) observed 0357 UTC 03 December 2016
Temperature: -9.0°C (16°F)
Dewpoint: -11.0°C (12°F) [RH = 85%]
Pressure (altimeter): 30.14 inches Hg (1020.7 mb)
Winds: from the SSW (210 degrees) at 7 MPH (6 knots; 3.1 m/s)
Visibility: 10 or more miles (16+ km)
Ceiling: at least 12,000 feet AGL
Clouds: sky clear below 12,000 feet AGL
Weather: automated observation with no human augmentation;
there may or may not be significant weather present at this time

METAR text: KMNH 030337Z AUTO 20008KT 10SM CLR M09/M10 A3014 RMK AO2
Conditions at: KMNH (MONUMENT/ELBERT , CO, US) observed 0337 UTC 03 December 2016
Temperature: -9.0°C (16°F)
Dewpoint: -10.0°C (14°F) [RH = 92%]
Pressure (altimeter): 30.14 inches Hg (1020.7 mb)
Winds: from the SSW (200 degrees) at 9 MPH (8 knots; 4.2 m/s)
Visibility: 10 or more miles (16+ km)
Ceiling: at least 12,000 feet AGL
Clouds: sky clear below 12,000 feet AGL
Weather: automated observation with no human augmentation;
there may or may not be significant weather present at this time

METAR text: KMNH 030317Z AUTO 21006KT 10SM CLR M08/M10 A3014 RMK AO2
Conditions at: KMNH (MONUMENT/ELBERT , CO, US) observed 0317 UTC 03 December 2016
Temperature: -8.0°C (18°F)
Dewpoint: -10.0°C (14°F) [RH = 85%]
Pressure (altimeter): 30.14 inches Hg (1020.7 mb)
Winds: from the SSW (210 degrees) at 7 MPH (6 knots; 3.1 m/s)
Visibility: 10 or more miles (16+ km)
Ceiling: at least 12,000 feet AGL
Clouds: sky clear below 12,000 feet AGL
Weather: automated observation with no human augmentation;
there may or may not be significant weather present at this time

METAR text: KMNH 030257Z AUTO 20008KT 10SM CLR M08/M10 A3014 RMK AO2
Conditions at: KMNH (MONUMENT/ELBERT , CO, US) observed 0257 UTC 03 December 2016
Temperature: -8.0°C (18°F)
Dewpoint: -10.0°C (14°F) [RH = 85%]
Pressure (altimeter): 30.14 inches Hg (1020.7 mb)
Winds: from the SSW (200 degrees) at 9 MPH (8 knots; 4.2 m/s)
Visibility: 10 or more miles (16+ km)
Ceiling: at least 12,000 feet AGL
Clouds: sky clear below 12,000 feet AGL
Weather: automated observation with no human augmentation;
there may or may not be significant weather present at this time

METAR text: KMNH 030236Z AUTO 19010KT 10SM CLR M08/M10 A3014 RMK AO2
Conditions at: KMNH (MONUMENT/ELBERT , CO, US) observed 0236 UTC 03 December 2016
Temperature: -8.0°C (18°F)
Dewpoint: -10.0°C (14°F) [RH = 85%]
Pressure (altimeter): 30.14 inches Hg (1020.7 mb)
Winds: from the S (190 degrees) at 12 MPH (10 knots; 5.2 m/s)
Visibility: 10 or more miles (16+ km)
Ceiling: at least 12,000 feet AGL
Clouds: sky clear below 12,000 feet AGL
Weather: automated observation with no human augmentation;
there may or may not be significant weather present at this time

METAR text: KMNH 030216Z AUTO 19009KT 10SM CLR M08/M10 A3014 RMK AO2
Conditions at: KMNH (MONUMENT/ELBERT , CO, US) observed 0216 UTC 03 December 2016
Temperature: -8.0°C (18°F)
Dewpoint: -10.0°C (14°F) [RH = 85%]
Pressure (altimeter): 30.14 inches Hg (1020.7 mb)
Winds: from the S (190 degrees) at 10 MPH (9 knots; 4.7 m/s)
Visibility: 10 or more miles (16+ km)
Ceiling: at least 12,000 feet AGL
Clouds: sky clear below 12,000 feet AGL
Weather: automated observation with no human augmentation;
there may or may not be significant weather present at this time

METAR text: KMNH 030157Z AUTO 18008KT 10SM CLR M08/M10 A3014 RMK AO2
Conditions at: KMNH (MONUMENT/ELBERT , CO, US) observed 0157 UTC 03 December 2016
Temperature: -8.0°C (18°F)
Dewpoint: -10.0°C (14°F) [RH = 85%]
Pressure (altimeter): 30.14 inches Hg (1020.7 mb)
Winds: from the S (180 degrees) at 9 MPH (8 knots; 4.2 m/s)
Visibility: 10 or more miles (16+ km)
Ceiling: at least 12,000 feet AGL
Clouds: sky clear below 12,000 feet AGL
Weather: automated observation with no human augmentation;
there may or may not be significant weather present at this time

METAR text: KMNH 030137Z AUTO 19005KT 10SM CLR M09/M10 A3014 RMK AO2
Conditions at: KMNH (MONUMENT/ELBERT , CO, US) observed 0137 UTC 03 December 2016
Temperature: -9.0°C (16°F)
Dewpoint: -10.0°C (14°F) [RH = 92%]
Pressure (altimeter): 30.14 inches Hg (1020.7 mb)
Winds: from the S (190 degrees) at 6 MPH (5 knots; 2.6 m/s)
Visibility: 10 or more miles (16+ km)
Ceiling: at least 12,000 feet AGL
Clouds: sky clear below 12,000 feet AGL
Weather: automated observation with no human augmentation;
there may or may not be significant weather present at this time

METAR text: KMNH 030117Z AUTO 19006KT 10SM CLR M10/M11 A3014 RMK AO2
Conditions at: KMNH (MONUMENT/ELBERT , CO, US) observed 0117 UTC 03 December 2016
Temperature: -10.0°C (14°F)
Dewpoint: -11.0°C (12°F) [RH = 92%]
Pressure (altimeter): 30.14 inches Hg (1020.7 mb)
Winds: from the S (190 degrees) at 7 MPH (6 knots; 3.1 m/s)
Visibility: 10 or more miles (16+ km)
Ceiling: at least 12,000 feet AGL
Clouds: sky clear below 12,000 feet AGL
Weather: automated observation with no human augmentation;
there may or may not be significant weather present at this time

METAR text: KMNH 030057Z AUTO 19006KT 10SM SCT017 SCT024 M08/M10 A3014 RMK AO2
Conditions at: KMNH (MONUMENT/ELBERT , CO, US) observed 0057 UTC 03 December 2016
Temperature: -8.0°C (18°F)
Dewpoint: -10.0°C (14°F) [RH = 85%]
Pressure (altimeter): 30.14 inches Hg (1020.7 mb)
Winds: from the S (190 degrees) at 7 MPH (6 knots; 3.1 m/s)
Visibility: 10 or more miles (16+ km)
Ceiling: at least 12,000 feet AGL
Clouds: scattered clouds at 1700 feet AGL
scattered clouds at 2400 feet AGL
Weather: automated observation with no human augmentation;
there may or may not be significant weather present at this time

METAR text: KMNH 030037Z AUTO 18006KT 10SM BKN019 BKN024 M07/M08 A3014 RMK AO2
Conditions at: KMNH (MONUMENT/ELBERT , CO, US) observed 0037 UTC 03 December 2016
Temperature: -7.0°C (19°F)
Dewpoint: -8.0°C (18°F) [RH = 93%]
Pressure (altimeter): 30.14 inches Hg (1020.7 mb)
Winds: from the S (180 degrees) at 7 MPH (6 knots; 3.1 m/s)
Visibility: 10 or more miles (16+ km)
Ceiling: 1900 feet AGL
Clouds: broken clouds at 1900 feet AGL
broken clouds at 2400 feet AGL
Weather: automated observation with no human augmentation;
there may or may not be significant weather present at this time

METAR text: KMNH 030017Z AUTO 18007KT 10SM CLR M08/M10 A3014 RMK AO2
Conditions at: KMNH (MONUMENT/ELBERT , CO, US) observed 0017 UTC 03 December 2016
Temperature: -8.0°C (18°F)
Dewpoint: -10.0°C (14°F) [RH = 85%]
Pressure (altimeter): 30.14 inches Hg (1020.7 mb)
Winds: from the S (180 degrees) at 8 MPH (7 knots; 3.6 m/s)
Visibility: 10 or more miles (16+ km)
Ceiling: at least 12,000 feet AGL
Clouds: sky clear below 12,000 feet AGL
Weather: automated observation with no human augmentation;
there may or may not be significant weather present at this time

METAR text: KMNH 022357Z AUTO 17005KT 10SM CLR M07/M09 A3013 RMK AO2
Conditions at: KMNH (MONUMENT/ELBERT , CO, US) observed 2357 UTC 02 December 2016
Temperature: -7.0°C (19°F)
Dewpoint: -9.0°C (16°F) [RH = 86%]
Pressure (altimeter): 30.13 inches Hg (1020.4 mb)
Winds: from the S (170 degrees) at 6 MPH (5 knots; 2.6 m/s)
Visibility: 10 or more miles (16+ km)
Ceiling: at least 12,000 feet AGL
Clouds: sky clear below 12,000 feet AGL
Weather: automated observation with no human augmentation;
there may or may not be significant weather present at this time

METAR text: KMNH 022337Z AUTO 16006KT 10SM SCT016 SCT022 BKN028 M06/M08 A3012 RMK AO2
Conditions at: KMNH (MONUMENT/ELBERT , CO, US) observed 2337 UTC 02 December 2016
Temperature: -6.0°C (21°F)
Dewpoint: -8.0°C (18°F) [RH = 86%]
Pressure (altimeter): 30.12 inches Hg (1020.1 mb)
Winds: from the SSE (160 degrees) at 7 MPH (6 knots; 3.1 m/s)
Visibility: 10 or more miles (16+ km)
Ceiling: 2800 feet AGL
Clouds: scattered clouds at 1600 feet AGL
scattered clouds at 2200 feet AGL
broken clouds at 2800 feet AGL
Weather: automated observation with no human augmentation;
there may or may not be significant weather present at this time

METAR text: KMNH 022317Z AUTO 16012KT 10SM BKN027 OVC032 M05/M08 A3012 RMK AO2
Conditions at: KMNH (MONUMENT/ELBERT , CO, US) observed 2317 UTC 02 December 2016
Temperature: -5.0°C (23°F)
Dewpoint: -8.0°C (18°F) [RH = 79%]
Pressure (altimeter): 30.12 inches Hg (1020.1 mb)
Winds: from the SSE (160 degrees) at 14 MPH (12 knots; 6.2 m/s)
Visibility: 10 or more miles (16+ km)
Ceiling: 2700 feet AGL
Clouds: broken clouds at 2700 feet AGL
overcast cloud deck at 3200 feet AGL
Weather: automated observation with no human augmentation;
there may or may not be significant weather present at this time

METAR text: KMNH 022256Z AUTO 16009KT 10SM SCT016 BKN021 OVC027 M05/M08 A3012 RMK AO2
Conditions at: KMNH (MONUMENT/ELBERT , CO, US) observed 2256 UTC 02 December 2016
Temperature: -5.0°C (23°F)
Dewpoint: -8.0°C (18°F) [RH = 79%]
Pressure (altimeter): 30.12 inches Hg (1020.1 mb)
Winds: from the SSE (160 degrees) at 10 MPH (9 knots; 4.7 m/s)
Visibility: 10 or more miles (16+ km)
Ceiling: 2100 feet AGL
Clouds: scattered clouds at 1600 feet AGL
broken clouds at 2100 feet AGL
overcast cloud deck at 2700 feet AGL
Weather: automated observation with no human augmentation;
there may or may not be significant weather present at this time

METAR text: KMNH 022237Z AUTO 15007KT 4SM -SN BKN017 BKN022 OVC027 M04/M07 A3012 RMK AO2
Conditions at: KMNH (MONUMENT/ELBERT , CO, US) observed 2237 UTC 02 December 2016
Temperature: -4.0°C (25°F)
Dewpoint: -7.0°C (19°F) [RH = 80%]
Pressure (altimeter): 30.12 inches Hg (1020.1 mb)
Winds: from the SSE (150 degrees) at 8 MPH (7 knots; 3.6 m/s)
Visibility: 4 miles (6 km)
Ceiling: 1700 feet AGL
Clouds: broken clouds at 1700 feet AGL
broken clouds at 2200 feet AGL
overcast cloud deck at 2700 feet AGL
Weather: -SN  (light snow)

METAR text: KMNH 022217Z AUTO 17008KT 10SM -SN SCT020 BKN028 BKN038 M04/M08 A3012 RMK AO2
Conditions at: KMNH (MONUMENT/ELBERT , CO, US) observed 2217 UTC 02 December 2016
Temperature: -4.0°C (25°F)
Dewpoint: -8.0°C (18°F) [RH = 74%]
Pressure (altimeter): 30.12 inches Hg (1020.1 mb)
Winds: from the S (170 degrees) at 9 MPH (8 knots; 4.2 m/s)
Visibility: 10 or more miles (16+ km)
Ceiling: 2800 feet AGL
Clouds: scattered clouds at 2000 feet AGL
broken clouds at 2800 feet AGL
broken clouds at 3800 feet AGL
Weather: -SN  (light snow)

METAR text: KMNH 022156Z AUTO 18011KT 10SM SCT020 BKN027 BKN032 M03/M08 A3012 RMK AO2
Conditions at: KMNH (MONUMENT/ELBERT , CO, US) observed 2156 UTC 02 December 2016
Temperature: -3.0°C (27°F)
Dewpoint: -8.0°C (18°F) [RH = 68%]
Pressure (altimeter): 30.12 inches Hg (1020.1 mb)
Winds: from the S (180 degrees) at 13 MPH (11 knots; 5.7 m/s)
Visibility: 10 or more miles (16+ km)
Ceiling: 2700 feet AGL
Clouds: scattered clouds at 2000 feet AGL
broken clouds at 2700 feet AGL
broken clouds at 3200 feet AGL
Weather: automated observation with no human augmentation;
there may or may not be significant weather present at this time

METAR text: KMNH 022136Z AUTO 16011G15KT 10SM SCT020 BKN025 BKN030 M03/M08 A3012 RMK AO2
Conditions at: KMNH (MONUMENT/ELBERT , CO, US) observed 2136 UTC 02 December 2016
Temperature: -3.0°C (27°F)
Dewpoint: -8.0°C (18°F) [RH = 68%]
Pressure (altimeter): 30.12 inches Hg (1020.1 mb)
Winds: from the SSE (160 degrees) at 13 MPH (11 knots; 5.7 m/sgusting to 17 MPH (15 knots; 7.8 m/s)
Visibility: 10 or more miles (16+ km)
Ceiling: 2500 feet AGL
Clouds: scattered clouds at 2000 feet AGL
broken clouds at 2500 feet AGL
broken clouds at 3000 feet AGL
Weather: automated observation with no human augmentation;
there may or may not be significant weather present at this time

METAR text: KMNH 022117Z AUTO 16009KT 10SM BKN020 OVC029 M03/M08 A3012 RMK AO2
Conditions at: KMNH (MONUMENT/ELBERT , CO, US) observed 2117 UTC 02 December 2016
Temperature: -3.0°C (27°F)
Dewpoint: -8.0°C (18°F) [RH = 68%]
Pressure (altimeter): 30.12 inches Hg (1020.1 mb)
Winds: from the SSE (160 degrees) at 10 MPH (9 knots; 4.7 m/s)
Visibility: 10 or more miles (16+ km)
Ceiling: 2000 feet AGL
Clouds: broken clouds at 2000 feet AGL
overcast cloud deck at 2900 feet AGL
Weather: automated observation with no human augmentation;
there may or may not be significant weather present at this time

METAR text: KMNH 022057Z AUTO 16011KT 10SM SCT017 SCT022 BKN034 M03/M08 A3011 RMK AO2
Conditions at: KMNH (MONUMENT/ELBERT , CO, US) observed 2057 UTC 02 December 2016
Temperature: -3.0°C (27°F)
Dewpoint: -8.0°C (18°F) [RH = 68%]
Pressure (altimeter): 30.11 inches Hg (1019.7 mb)
Winds: from the SSE (160 degrees) at 13 MPH (11 knots; 5.7 m/s)
Visibility: 10 or more miles (16+ km)
Ceiling: 3400 feet AGL
Clouds: scattered clouds at 1700 feet AGL
scattered clouds at 2200 feet AGL
broken clouds at 3400 feet AGL
Weather: automated observation with no human augmentation;
there may or may not be significant weather present at this time

METAR text: KMNH 022037Z AUTO 16012KT 10SM OVC032 M03/M08 A3011 RMK AO2
Conditions at: KMNH (MONUMENT/ELBERT , CO, US) observed 2037 UTC 02 December 2016
Temperature: -3.0°C (27°F)
Dewpoint: -8.0°C (18°F) [RH = 68%]
Pressure (altimeter): 30.11 inches Hg (1019.7 mb)
Winds: from the SSE (160 degrees) at 14 MPH (12 knots; 6.2 m/s)
Visibility: 10 or more miles (16+ km)
Ceiling: 3200 feet AGL
Clouds: overcast cloud deck at 3200 feet AGL
Weather: automated observation with no human augmentation;
there may or may not be significant weather present at this time

METAR text: KMNH 022017Z AUTO 15010G16KT 10SM SCT018 OVC031 M03/M08 A3012 RMK AO2
Conditions at: KMNH (MONUMENT/ELBERT , CO, US) observed 2017 UTC 02 December 2016
Temperature: -3.0°C (27°F)
Dewpoint: -8.0°C (18°F) [RH = 68%]
Pressure (altimeter): 30.12 inches Hg (1020.1 mb)
Winds: from the SSE (150 degrees) at 12 MPH (10 knots; 5.2 m/sgusting to 18 MPH (16 knots; 8.3 m/s)
Visibility: 10 or more miles (16+ km)
Ceiling: 3100 feet AGL
Clouds: scattered clouds at 1800 feet AGL
overcast cloud deck at 3100 feet AGL
Weather: automated observation with no human augmentation;
there may or may not be significant weather present at this time

METAR text: KMNH 021957Z AUTO 14011KT 7SM SCT015 BKN023 OVC029 M03/M08 A3013 RMK AO2
Conditions at: KMNH (MONUMENT/ELBERT , CO, US) observed 1957 UTC 02 December 2016
Temperature: -3.0°C (27°F)
Dewpoint: -8.0°C (18°F) [RH = 68%]
Pressure (altimeter): 30.13 inches Hg (1020.4 mb)
Winds: from the SE (140 degrees) at 13 MPH (11 knots; 5.7 m/s)
Visibility: 7 miles (11 km)
Ceiling: 2300 feet AGL
Clouds: scattered clouds at 1500 feet AGL
broken clouds at 2300 feet AGL
overcast cloud deck at 2900 feet AGL
Weather: automated observation with no human augmentation;
there may or may not be significant weather present at this time

METAR text: KMNH 021937Z AUTO 16010KT 7SM BKN013 BKN020 OVC030 M03/M08 A3014 RMK AO2
Conditions at: KMNH (MONUMENT/ELBERT , CO, US) observed 1937 UTC 02 December 2016
Temperature: -3.0°C (27°F)
Dewpoint: -8.0°C (18°F) [RH = 68%]
Pressure (altimeter): 30.14 inches Hg (1020.7 mb)
Winds: from the SSE (160 degrees) at 12 MPH (10 knots; 5.2 m/s)
Visibility: 7 miles (11 km)
Ceiling: 1300 feet AGL
Clouds: broken clouds at 1300 feet AGL
broken clouds at 2000 feet AGL
overcast cloud deck at 3000 feet AGL
Weather: automated observation with no human augmentation;
there may or may not be significant weather present at this time

METAR text: KMNH 021917Z AUTO 15012KT 5SM -SN BKN014 OVC021 M03/M07 A3015 RMK AO2
Conditions at: KMNH (MONUMENT/ELBERT , CO, US) observed 1917 UTC 02 December 2016
Temperature: -3.0°C (27°F)
Dewpoint: -7.0°C (19°F) [RH = 74%]
Pressure (altimeter): 30.15 inches Hg (1021.1 mb)
Winds: from the SSE (150 degrees) at 14 MPH (12 knots; 6.2 m/s)
Visibility: 5 miles (8 km)
Ceiling: 1400 feet AGL
Clouds: broken clouds at 1400 feet AGL
overcast cloud deck at 2100 feet AGL
Weather: -SN  (light snow)

METAR text: KMNH 021857Z AUTO 16010KT 10SM BKN016 OVC024 M03/M09 A3015 RMK AO2
Conditions at: KMNH (MONUMENT/ELBERT , CO, US) observed 1857 UTC 02 December 2016
Temperature: -3.0°C (27°F)
Dewpoint: -9.0°C (16°F) [RH = 63%]
Pressure (altimeter): 30.15 inches Hg (1021.1 mb)
Winds: from the SSE (160 degrees) at 12 MPH (10 knots; 5.2 m/s)
Visibility: 10 or more miles (16+ km)
Ceiling: 1600 feet AGL
Clouds: broken clouds at 1600 feet AGL
overcast cloud deck at 2400 feet AGL
Weather: automated observation with no human augmentation;
there may or may not be significant weather present at this time

METAR text: KMNH 021837Z AUTO 14011KT 7SM BKN019 BKN024 OVC030 M03/M10 A3016 RMK AO2
Conditions at: KMNH (MONUMENT/ELBERT , CO, US) observed 1837 UTC 02 December 2016
Temperature: -3.0°C (27°F)
Dewpoint: -10.0°C (14°F) [RH = 58%]
Pressure (altimeter): 30.16 inches Hg (1021.4 mb)
Winds: from the SE (140 degrees) at 13 MPH (11 knots; 5.7 m/s)
Visibility: 7 miles (11 km)
Ceiling: 1900 feet AGL
Clouds: broken clouds at 1900 feet AGL
broken clouds at 2400 feet AGL
overcast cloud deck at 3000 feet AGL
Weather: automated observation with no human augmentation;
there may or may not be significant weather present at this time

METAR text: KMNH 021817Z AUTO 16006KT 7SM SCT019 BKN026 OVC032 M03/M10 A3016 RMK AO2
Conditions at: KMNH (MONUMENT/ELBERT , CO, US) observed 1817 UTC 02 December 2016
Temperature: -3.0°C (27°F)
Dewpoint: -10.0°C (14°F) [RH = 58%]
Pressure (altimeter): 30.16 inches Hg (1021.4 mb)
Winds: from the SSE (160 degrees) at 7 MPH (6 knots; 3.1 m/s)
Visibility: 7 miles (11 km)
Ceiling: 2600 feet AGL
Clouds: scattered clouds at 1900 feet AGL
broken clouds at 2600 feet AGL
overcast cloud deck at 3200 feet AGL
Weather: automated observation with no human augmentation;
there may or may not be significant weather present at this time

METAR text: KMNH 021757Z AUTO 13009KT 10SM OVC035 M03/M11 A3016 RMK AO2
Conditions at: KMNH (MONUMENT/ELBERT , CO, US) observed 1757 UTC 02 December 2016
Temperature: -3.0°C (27°F)
Dewpoint: -11.0°C (12°F) [RH = 54%]
Pressure (altimeter): 30.16 inches Hg (1021.4 mb)
Winds: from the SE (130 degrees) at 10 MPH (9 knots; 4.7 m/s)
Visibility: 10 or more miles (16+ km)
Ceiling: 3500 feet AGL
Clouds: overcast cloud deck at 3500 feet AGL
Weather: automated observation with no human augmentation;
there may or may not be significant weather present at this time

METAR text: KMNH 021737Z AUTO 00000KT 10SM BKN037 BKN110 M03/M12 A3016 RMK AO2
Conditions at: KMNH (MONUMENT/ELBERT , CO, US) observed 1737 UTC 02 December 2016
Temperature: -3.0°C (27°F)
Dewpoint: -12.0°C (10°F) [RH = 50%]
Pressure (altimeter): 30.16 inches Hg (1021.4 mb)
Winds: calm
Visibility: 10 or more miles (16+ km)
Ceiling: 3700 feet AGL
Clouds: broken clouds at 3700 feet AGL
broken clouds at 11000 feet AGL
Weather: automated observation with no human augmentation;
there may or may not be significant weather present at this time

METAR text: KMNH 021717Z AUTO 00000KT 10SM SCT035 SCT075 SCT120 M03/M11 A3016 RMK AO2
Conditions at: KMNH (MONUMENT/ELBERT , CO, US) observed 1717 UTC 02 December 2016
Temperature: -3.0°C (27°F)
Dewpoint: -11.0°C (12°F) [RH = 54%]
Pressure (altimeter): 30.16 inches Hg (1021.4 mb)
Winds: calm
Visibility: 10 or more miles (16+ km)
Ceiling: at least 12,000 feet AGL
Clouds: scattered clouds at 3500 feet AGL
scattered clouds at 7500 feet AGL
scattered clouds at 12000 feet AGL
Weather: automated observation with no human augmentation;
there may or may not be significant weather present at this time

METAR text: KMNH 021657Z AUTO 34003KT 10SM SCT038 SCT049 SCT065 M05/M12 A3015 RMK AO2
Conditions at: KMNH (MONUMENT/ELBERT , CO, US) observed 1657 UTC 02 December 2016
Temperature: -5.0°C (23°F)
Dewpoint: -12.0°C (10°F) [RH = 58%]
Pressure (altimeter): 30.15 inches Hg (1021.1 mb)
Winds: from the NNW (340 degrees) at 3 MPH (3 knots; 1.6 m/s)
Visibility: 10 or more miles (16+ km)
Ceiling: at least 12,000 feet AGL
Clouds: scattered clouds at 3800 feet AGL
scattered clouds at 4900 feet AGL
scattered clouds at 6500 feet AGL
Weather: automated observation with no human augmentation;
there may or may not be significant weather present at this time

METAR text: KMNH 021637Z AUTO 31005KT 10SM BKN034 BKN049 OVC070 M05/M11 A3016 RMK AO2
Conditions at: KMNH (MONUMENT/ELBERT , CO, US) observed 1637 UTC 02 December 2016
Temperature: -5.0°C (23°F)
Dewpoint: -11.0°C (12°F) [RH = 63%]
Pressure (altimeter): 30.16 inches Hg (1021.4 mb)
Winds: from the NW (310 degrees) at 6 MPH (5 knots; 2.6 m/s)
Visibility: 10 or more miles (16+ km)
Ceiling: 3400 feet AGL
Clouds: broken clouds at 3400 feet AGL
broken clouds at 4900 feet AGL
overcast cloud deck at 7000 feet AGL
Weather: automated observation with no human augmentation;
there may or may not be significant weather present at this time

METAR text: KMNH 021617Z AUTO 29005KT 10SM OVC032 M05/M12 A3015 RMK AO2
Conditions at: KMNH (MONUMENT/ELBERT , CO, US) observed 1617 UTC 02 December 2016
Temperature: -5.0°C (23°F)
Dewpoint: -12.0°C (10°F) [RH = 58%]
Pressure (altimeter): 30.15 inches Hg (1021.1 mb)
Winds: from the WNW (290 degrees) at 6 MPH (5 knots; 2.6 m/s)
Visibility: 10 or more miles (16+ km)
Ceiling: 3200 feet AGL
Clouds: overcast cloud deck at 3200 feet AGL
Weather: automated observation with no human augmentation;
there may or may not be significant weather present at this time

METAR text: KMNH 021557Z AUTO 25003KT 10SM SCT027 BKN038 OVC065 M06/M12 A3015 RMK AO2
Conditions at: KMNH (MONUMENT/ELBERT , CO, US) observed 1557 UTC 02 December 2016
Temperature: -6.0°C (21°F)
Dewpoint: -12.0°C (10°F) [RH = 62%]
Pressure (altimeter): 30.15 inches Hg (1021.1 mb)
Winds: from the WSW (250 degrees) at 3 MPH (3 knots; 1.6 m/s)
Visibility: 10 or more miles (16+ km)
Ceiling: 3800 feet AGL
Clouds: scattered clouds at 2700 feet AGL
broken clouds at 3800 feet AGL
overcast cloud deck at 6500 feet AGL
Weather: automated observation with no human augmentation;
there may or may not be significant weather present at this time